CYFBBGGH

Guest
Details From CYFB - Iqaluit
To BGGH - Nuuk
Flight Number -
Tags generated
Created
Modified
Stats Distance 665 nm / 1,232 km
Max Altitude 35,000 ft / 10,668 m
Waypoints 5
Social Downloads 1
Likes 0
Share VATSIM

Download

Looking for another format? Having issues loading an existing format? Contact us
Advertisement - Login to hide

Notes

Basic altitude profile: - Ascent Rate: 2500ft/min - Ascent Speed: 250kts - Cruise Altitude: 35000ft - Cruise Speed: 420kts - Descent Rate: 1500ft/min - Descent Speed: 250kts

Route

CYFB YFB 5E72 SF 5E86 MA BGGH

ID Type Via Altitude Latitude Longitude Leg Dist Tot Dist Heading (true) Name
O CYFB APT - 0 ft / 0 m 63.75657˚ -68.55606˚ - 0 nm - Iqaluit
YFB VOR - 800 ft / 244 m 63.74167˚ -68.47333˚ 2 nm 2 nm 112° / 112° FROBAY VOR
SF NDB 5E72 (AWY-HI) 35,000 ft / 10,668 m 66.96749˚ -50.94167˚ 477 nm 480 nm 58° / 74° SONDRE STROMFJORD NDB
MA NDB 5E86 (AWY-HI) 16,000 ft / 4,877 m 65.40667˚ -52.92100˚ 105 nm 585 nm 208° / 206° MANIITSOQ NDB
O BGGH APT - 0 ft / 0 m 64.19302˚ -51.67645˚ 79 nm 665 nm 156° / 157° Nuuk

Altitude Profile

Advertisement - Login to hide

Weather


0- 5 10 15 20 25 30 35+ Temperature / ° C

Clouds and Precipitation
Forecast for 2017-12-17 00:00 UTC. Updated 2 hours ago

Ground ~20,000 ft ~40,000 ft Winds

CYFB

Details ICAO CYFB (YFB)
Name Iqaluit
Region Canada
Timezone America/Iqaluit (UTC-5.0)
Stats Elevation 110 ft / 34 m (AMSL)
Location 63.756565° -68.556058°
Runways 1
Magnetic Variation 27.540° W

METAR

CYFB 162300Z 32016KT 15SM -SN SCT053 BKN100 M09/M12 A2925 RMK SC4AC3 SLP909

Decode

TAF

TAF TAF CYFB 161750Z 1618/1718 33010KT P6SM SCT030 BKN060 TEMPO 1618/1624 6SM -SN BKN030 OVC060 FM170000 33010KT P6SM BKN025 OVC050 TEMPO 1700/1708 5SM -SN BKN020 FM170800 32015KT 4SM -SN OVC015 TEMPO 1708/1715 2SM -SN FM171500 32020G30KT 11/2SM -SN BLSN VV012 RMK NXT FCST BY 170000Z

Decode

Departure Runways

ID Width Length Bearing (true) Bearing (mag) Surface Threshold Offset Overrun Length
17 200 ft / 61 m 8,605 ft / 2,623 m 135.58° 163.12° Asphalt 0 ft / 0 m 210 ft / 64 m
35 200 ft / 61 m 8,605 ft / 2,623 m 315.62° 343.16° Asphalt 0 ft / 0 m 243 ft / 74 m

BGGH

Details ICAO BGGH (GOH)
Name Nuuk
Region Greenland
Timezone America/Godthab (UTC-3.0)
Stats Elevation 283 ft / 86 m (AMSL)
Location 64.193021° -51.676454°
Runways 1
Magnetic Variation 27.017° W

METAR

BGGH 162250Z AUTO VRB02KT 9999NDV SCT079/// BKN190/// M05/M10 Q0985

Decode

TAF

Not found

Destination Runways

ID Width Length Bearing (true) Bearing (mag) Surface Threshold Offset Overrun Length
05 98 ft / 30 m 3,113 ft / 949 m 18.44° 45.46° Asphalt 0 ft / 0 m 0 ft / 0 m
23 98 ft / 30 m 3,113 ft / 949 m 198.44° 225.46° Asphalt 0 ft / 0 m 0 ft / 0 m

Popular Alternatives